EmailTwitter


Surface observations / United Kingdom / EGLL (03772)

Regions: Quebec | Canada | USA | Europe | France | UK | Elsewhere
Station
Display
Info & Location for EGLL (03772) | Help decoding METAR

Weather Conditions observed on 2017/05/25 at 10:20 UTC at LONDON/HEATHROW, UK (EGLL)

Sky conditions: partly cloudy.

Temperature: 24.0 Celsius.

Dewpoint: 14.0 Celsius.

Relative Humidity: 54%

Humidex: 27.

Winds: East at 11 km/h or 6 knots.

Mean Sea level Pressure: 102.40 kilopascals.

Horizontal visibility: 6.21 statute miles or 9.94 kilometers.

Height of the Ceiling: 1097 metres ( 3600 feet ).

Coded METAR:

EGLL 251020Z AUTO 09006KT 050V140 9999 BKN036 24/14 Q1024=